createdAt,value
2018-08-03T00:00:02.998Z,1007.08
2018-08-03T00:00:43.523Z,1007.06
2018-08-03T00:01:24.066Z,1007.06
2018-08-03T00:02:04.511Z,1007.02
2018-08-03T00:02:45.037Z,1007.04
2018-08-03T00:03:25.515Z,1007.03
2018-08-03T00:04:06.032Z,1007.02
2018-08-03T00:04:46.508Z,1007.01
2018-08-03T00:05:27.047Z,1006.98
2018-08-03T00:06:07.507Z,1007
2018-08-03T00:06:48.025Z,1007
2018-08-03T00:07:28.495Z,1007
2018-08-03T00:08:09.003Z,1007
2018-08-03T00:08:49.537Z,1007
2018-08-03T00:09:30.053Z,1006.99
2018-08-03T00:10:10.492Z,1006.99
2018-08-03T00:10:50.995Z,1006.97
2018-08-03T00:11:31.498Z,1007.01
2018-08-03T00:12:11.944Z,1006.98
2018-08-03T00:12:52.428Z,1007.02
2018-08-03T00:13:32.949Z,1007
2018-08-03T00:14:13.440Z,1006.98
2018-08-03T00:14:53.916Z,1006.98
2018-08-03T00:15:34.424Z,1006.97
2018-08-03T00:16:14.989Z,1007
2018-08-03T00:16:55.510Z,1007.03
2018-08-03T00:17:35.960Z,1006.98
2018-08-03T00:18:16.456Z,1006.99
2018-08-03T00:18:56.958Z,1006.99
2018-08-03T00:19:37.408Z,1006.95
2018-08-03T00:20:17.944Z,1006.97
2018-08-03T00:20:58.420Z,1006.93
2018-08-03T00:21:38.890Z,1006.96
2018-08-03T00:22:19.409Z,1006.92
2018-08-03T00:22:59.868Z,1006.89
2018-08-03T00:23:40.373Z,1006.89
2018-08-03T00:24:20.907Z,1006.86
2018-08-03T00:25:01.396Z,1006.83
2018-08-03T00:25:41.943Z,1006.82
2018-08-03T00:26:22.412Z,1006.81
2018-08-03T00:27:02.914Z,1006.82
2018-08-03T00:27:43.403Z,1006.82
2018-08-03T00:28:23.911Z,1006.8
2018-08-03T00:29:04.387Z,1006.83
2018-08-03T00:29:44.892Z,1006.81
2018-08-03T00:30:25.431Z,1006.74
2018-08-03T00:31:05.926Z,1006.8
2018-08-03T00:31:46.437Z,1006.79
2018-08-03T00:32:26.933Z,1006.8
2018-08-03T00:33:07.430Z,1006.8
2018-08-03T00:33:47.888Z,1006.81
2018-08-03T00:34:28.385Z,1006.85
2018-08-03T00:35:08.914Z,1006.83
2018-08-03T00:35:49.436Z,1006.84
2018-08-03T00:36:29.846Z,1006.83
2018-08-03T00:37:10.356Z,1006.81
2018-08-03T00:37:50.849Z,1006.81
2018-08-03T00:38:31.391Z,1006.88
2018-08-03T00:39:11.909Z,1006.89
2018-08-03T00:39:52.357Z,1006.91
2018-08-03T00:40:32.855Z,1006.93
2018-08-03T00:41:13.349Z,1006.94
2018-08-03T00:41:53.828Z,1006.87
2018-08-03T00:42:34.336Z,1006.87
2018-08-03T00:43:14.840Z,1006.84
2018-08-03T00:43:55.283Z,1006.81
2018-08-03T00:44:35.796Z,1006.79
2018-08-03T00:45:16.335Z,1006.82
2018-08-03T00:45:56.757Z,1006.82
2018-08-03T00:46:37.285Z,1006.84
2018-08-03T00:47:17.770Z,1006.8
2018-08-03T00:47:58.258Z,1006.81
2018-08-03T00:48:38.720Z,1006.77
2018-08-03T00:49:19.202Z,1006.79
2018-08-03T00:49:59.743Z,1006.81
2018-08-03T00:50:40.174Z,1006.82
2018-08-03T00:51:20.734Z,1006.8
2018-08-03T00:52:03.104Z,1006.79
2018-08-03T00:52:43.602Z,1006.83
2018-08-03T00:53:24.095Z,1006.85
2018-08-03T00:54:04.630Z,1006.84
2018-08-03T00:54:45.089Z,1006.85
2018-08-03T00:55:25.530Z,1006.84
2018-08-03T00:56:06.090Z,1006.85
2018-08-03T00:56:46.700Z,1006.89
2018-08-03T00:57:27.378Z,1006.88
2018-08-03T00:58:07.850Z,1006.85
2018-08-03T00:58:48.379Z,1006.88
2018-08-03T00:59:28.847Z,1006.93
2018-08-03T01:00:09.391Z,1006.93
2018-08-03T01:00:49.859Z,1006.93
2018-08-03T01:01:30.369Z,1006.91
2018-08-03T01:02:10.817Z,1006.92
2018-08-03T01:02:51.388Z,1006.99
2018-08-03T01:03:31.803Z,1006.9
2018-08-03T01:05:30.052Z,1006.97
2018-08-03T01:06:10.545Z,1006.98
2018-08-03T01:06:51.066Z,1007.02
2018-08-03T01:07:31.566Z,1006.97
2018-08-03T01:08:12.967Z,1006.97
2018-08-03T01:08:53.466Z,1006.96
2018-08-03T01:09:33.901Z,1006.97
2018-08-03T01:10:14.395Z,1007.03
2018-08-03T01:10:54.942Z,1007
2018-08-03T01:11:35.394Z,1007.03
2018-08-03T01:12:15.901Z,1006.99
2018-08-03T01:12:56.394Z,1007
2018-08-03T01:13:36.924Z,1007.03
2018-08-03T01:14:17.382Z,1007.03
2018-08-03T01:14:57.848Z,1007.01
2018-08-03T01:15:38.331Z,1007.03
2018-08-03T01:16:18.846Z,1007
2018-08-03T01:16:59.367Z,1007.01
2018-08-03T01:17:39.848Z,1007
2018-08-03T01:18:20.344Z,1006.99
2018-08-03T01:19:00.792Z,1007.02
2018-08-03T01:19:41.380Z,1006.99
2018-08-03T01:20:21.863Z,1007.01
2018-08-03T01:21:02.329Z,1007.01
2018-08-03T01:21:42.871Z,1007
2018-08-03T01:22:23.327Z,1007.03
2018-08-03T01:23:03.832Z,1007.06
2018-08-03T01:23:44.338Z,1007.07
2018-08-03T01:24:24.827Z,1007.14
2018-08-03T01:25:05.343Z,1007.1
2018-08-03T01:25:45.827Z,1007.1
2018-08-03T01:26:26.337Z,1007.09
2018-08-03T01:27:07.106Z,1007.12
2018-08-03T01:27:47.582Z,1007.14
2018-08-03T01:28:28.121Z,1007.12
2018-08-03T01:29:08.630Z,1007.11
2018-08-03T01:29:49.102Z,1007.13
2018-08-03T01:30:29.621Z,1007.1
2018-08-03T01:31:10.111Z,1007.04
2018-08-03T01:31:50.588Z,1007.1
2018-08-03T01:32:31.076Z,1007.04
2018-08-03T01:33:11.585Z,1007.06
2018-08-03T01:33:52.067Z,1007.08
2018-08-03T01:34:32.542Z,1007.06
2018-08-03T01:35:13.089Z,1007.08
2018-08-03T01:35:53.692Z,1007.07
2018-08-03T01:36:34.194Z,1007.02
2018-08-03T01:37:14.676Z,1007.02
2018-08-03T01:37:55.235Z,1006.99
2018-08-03T01:38:35.660Z,1007.11
2018-08-03T01:39:16.175Z,1007.05
2018-08-03T01:39:56.638Z,1007.1
2018-08-03T01:40:37.177Z,1007.07
2018-08-03T01:41:17.629Z,1007.05
2018-08-03T01:41:58.119Z,1007.03
2018-08-03T01:42:38.652Z,1007.08
2018-08-03T01:43:19.104Z,1007.03
2018-08-03T01:43:59.582Z,1007.03
2018-08-03T01:44:40.079Z,1007.06
2018-08-03T01:45:20.578Z,1007.05
2018-08-03T01:46:01.069Z,1007.06
2018-08-03T01:46:41.551Z,1007.02
2018-08-03T01:47:22.003Z,1007.03
2018-08-03T01:48:02.513Z,1007.04
2018-08-03T01:48:43.032Z,1007.02
2018-08-03T01:49:23.502Z,1007.02
2018-08-03T01:50:03.998Z,1006.94
2018-08-03T01:50:44.618Z,1006.97
2018-08-03T01:51:25.131Z,1006.98
2018-08-03T01:52:05.567Z,1007.01
2018-08-03T01:52:46.060Z,1006.94
2018-08-03T01:53:26.557Z,1007.02
2018-08-03T01:54:07.400Z,1006.98
2018-08-03T01:54:47.853Z,1007.01
2018-08-03T01:55:28.359Z,1007.01
2018-08-03T01:56:08.815Z,1006.98
2018-08-03T01:56:49.444Z,1007.01
2018-08-03T01:57:29.929Z,1007.03
2018-08-03T01:58:10.408Z,1006.99
2018-08-03T01:58:50.888Z,1006.96
2018-08-03T01:59:31.423Z,1006.99
2018-08-03T02:00:11.881Z,1006.98
2018-08-03T02:00:52.365Z,1006.98
2018-08-03T02:01:32.873Z,1007.04
2018-08-03T02:02:13.321Z,1007.01
2018-08-03T02:02:53.835Z,1006.98
2018-08-03T02:03:34.332Z,1007.02
2018-08-03T02:04:14.807Z,1007.01
2018-08-03T02:04:55.282Z,1007.04
2018-08-03T02:05:35.765Z,1007.04
2018-08-03T02:06:16.235Z,1007.01
2018-08-03T02:06:56.737Z,1006.99
2018-08-03T02:07:37.299Z,1007.01
2018-08-03T02:08:17.738Z,1006.99
2018-08-03T02:08:58.220Z,1006.98
2018-08-03T02:09:38.699Z,1006.91
2018-08-03T02:10:19.235Z,1006.94
2018-08-03T02:10:59.733Z,1006.97
2018-08-03T02:11:40.222Z,1006.98
2018-08-03T02:12:20.675Z,1007.01
2018-08-03T02:13:01.188Z,1007.03
2018-08-03T02:13:41.679Z,1007
2018-08-03T02:14:22.152Z,1006.96
2018-08-03T02:15:02.610Z,1006.97
2018-08-03T02:15:43.134Z,1006.97
2018-08-03T02:16:23.624Z,1006.92
2018-08-03T02:17:04.080Z,1006.99
2018-08-03T02:17:44.618Z,1006.97
2018-08-03T02:18:25.087Z,1006.92
2018-08-03T02:19:05.607Z,1006.93
2018-08-03T02:19:46.090Z,1006.95
2018-08-03T02:20:26.568Z,1006.92
2018-08-03T02:21:07.048Z,1006.89
2018-08-03T02:21:47.475Z,1006.93
2018-08-03T02:22:28.002Z,1006.97
2018-08-03T02:23:08.527Z,1006.94
2018-08-03T02:23:48.995Z,1006.91
2018-08-03T02:24:29.511Z,1006.85
2018-08-03T02:25:09.991Z,1006.89
2018-08-03T02:25:50.472Z,1006.88
2018-08-03T02:26:31.079Z,1006.87
2018-08-03T02:27:11.575Z,1006.87
2018-08-03T02:27:52.108Z,1006.87
2018-08-03T02:28:32.555Z,1006.87
2018-08-03T02:29:13.042Z,1006.82
2018-08-03T02:29:53.523Z,1006.84
2018-08-03T02:30:34.001Z,1006.82
2018-08-03T02:31:14.557Z,1006.8
2018-08-03T02:31:54.989Z,1006.84
2018-08-03T02:32:35.492Z,1006.81
2018-08-03T02:33:16.016Z,1006.82
2018-08-03T02:33:56.515Z,1006.81
2018-08-03T02:34:36.978Z,1006.83
2018-08-03T02:35:17.438Z,1006.84
2018-08-03T02:35:57.934Z,1006.82
2018-08-03T02:36:38.443Z,1006.84
2018-08-03T02:37:18.935Z,1006.86
2018-08-03T02:37:59.425Z,1006.89
2018-08-03T02:38:39.901Z,1006.88
2018-08-03T02:39:20.354Z,1006.86
2018-08-03T02:40:00.846Z,1006.85
2018-08-03T02:40:41.368Z,1006.89
2018-08-03T02:41:21.851Z,1006.9
2018-08-03T02:42:02.319Z,1006.9
2018-08-03T02:42:42.803Z,1006.87
2018-08-03T02:43:23.309Z,1006.9
2018-08-03T02:44:03.786Z,1006.93
2018-08-03T02:44:44.337Z,1006.87
2018-08-03T02:45:24.922Z,1006.87
2018-08-03T02:46:06.708Z,1006.89
2018-08-03T02:46:48.710Z,1006.88
2018-08-03T02:47:29.219Z,1006.88
2018-08-03T02:48:09.767Z,1006.93
2018-08-03T02:48:50.271Z,1006.95
2018-08-03T02:49:30.748Z,1006.97
2018-08-03T02:50:11.228Z,1006.9
2018-08-03T02:50:51.766Z,1006.93
2018-08-03T02:51:32.274Z,1006.94
2018-08-03T02:52:12.761Z,1006.91
2018-08-03T02:52:53.290Z,1006.87
2018-08-03T02:53:33.763Z,1006.94
2018-08-03T02:54:14.238Z,1006.91
2018-08-03T02:54:54.748Z,1006.93
2018-08-03T02:55:35.211Z,1006.89
2018-08-03T02:57:48.453Z,1006.95
2018-08-03T02:58:28.959Z,1006.96
2018-08-03T02:59:09.457Z,1006.92
2018-08-03T02:59:50.000Z,1006.97
2018-08-03T03:00:30.514Z,1006.95
2018-08-03T03:01:11.012Z,1006.96
2018-08-03T03:01:51.650Z,1006.95
2018-08-03T03:02:32.010Z,1006.98
2018-08-03T03:03:12.647Z,1007.02
2018-08-03T03:03:53.140Z,1006.97
2018-08-03T03:04:33.636Z,1006.94
2018-08-03T03:05:14.117Z,1007.01
2018-08-03T03:05:54.607Z,1007
2018-08-03T03:06:35.152Z,1006.99
2018-08-03T03:07:15.673Z,1006.99
2018-08-03T03:07:56.170Z,1006.92
2018-08-03T03:08:36.625Z,1006.96
2018-08-03T03:09:17.149Z,1006.93
2018-08-03T03:09:57.645Z,1006.95
2018-08-03T03:10:38.159Z,1006.96
2018-08-03T03:11:18.706Z,1006.93
2018-08-03T03:11:59.179Z,1006.94
2018-08-03T03:12:39.610Z,1006.95
2018-08-03T03:13:20.138Z,1006.97
2018-08-03T03:14:00.584Z,1006.94
2018-08-03T03:14:41.146Z,1006.99
2018-08-03T03:15:21.598Z,1006.96
2018-08-03T03:16:02.093Z,1006.91
2018-08-03T03:16:42.637Z,1006.93
2018-08-03T03:17:23.085Z,1006.9
2018-08-03T03:18:03.621Z,1006.99
2018-08-03T03:18:44.145Z,1006.95
2018-08-03T03:19:24.774Z,1006.98
2018-08-03T03:20:05.210Z,1007.02
2018-08-03T03:20:45.644Z,1007.04
2018-08-03T03:21:26.119Z,1007.02
2018-08-03T03:22:06.650Z,1007.01
2018-08-03T03:22:47.131Z,1007.06
2018-08-03T03:23:27.682Z,1007.02
2018-08-03T03:24:08.163Z,1007
2018-08-03T03:24:48.681Z,1007.04
2018-08-03T03:25:29.172Z,1007.06
2018-08-03T03:26:09.635Z,1007.08
2018-08-03T03:26:50.148Z,1007.11
2018-08-03T03:27:30.675Z,1007.11
2018-08-03T03:28:11.124Z,1007.1
2018-08-03T03:28:51.632Z,1007.11
2018-08-03T03:29:32.094Z,1007.12
2018-08-03T03:30:12.621Z,1007.11
2018-08-03T03:30:53.134Z,1007.16
2018-08-03T03:31:33.591Z,1007.12
2018-08-03T03:32:14.067Z,1007.11
2018-08-03T03:32:54.571Z,1007.08
2018-08-03T03:33:35.079Z,1007.12
2018-08-03T03:34:15.554Z,1007.08
2018-08-03T03:34:56.035Z,1007.1
2018-08-03T03:35:36.526Z,1007.14
2018-08-03T03:36:17.034Z,1007.15
2018-08-03T03:36:57.496Z,1007.16
2018-08-03T03:37:38.072Z,1007.13
2018-08-03T03:38:18.573Z,1007.15
2018-08-03T03:38:59.249Z,1007.14
2018-08-03T03:39:39.748Z,1007.13
2018-08-03T03:40:20.258Z,1007.18
2018-08-03T03:41:00.753Z,1007.15
2018-08-03T03:41:41.223Z,1007.17
2018-08-03T03:42:21.701Z,1007.2
2018-08-03T03:43:02.207Z,1007.18
2018-08-03T03:43:42.761Z,1007.2
2018-08-03T03:44:23.251Z,1007.2
2018-08-03T03:45:03.752Z,1007.22
2018-08-03T03:45:44.269Z,1007.21
2018-08-03T03:46:24.730Z,1007.24
2018-08-03T03:47:05.293Z,1007.28
2018-08-03T03:47:45.753Z,1007.23
2018-08-03T03:48:26.246Z,1007.28
2018-08-03T03:49:06.753Z,1007.25
2018-08-03T03:49:47.374Z,1007.22
2018-08-03T03:50:27.847Z,1007.23
2018-08-03T03:51:08.439Z,1007.21
2018-08-03T03:51:48.792Z,1007.21
2018-08-03T03:52:29.423Z,1007.26
2018-08-03T03:53:09.988Z,1007.23
2018-08-03T03:53:50.496Z,1007.23
2018-08-03T03:54:30.969Z,1007.2
2018-08-03T03:55:11.502Z,1007.22
2018-08-03T03:55:51.996Z,1007.25
2018-08-03T03:56:32.520Z,1007.27
2018-08-03T03:57:12.980Z,1007.25
2018-08-03T03:57:53.492Z,1007.26
2018-08-03T03:58:33.949Z,1007.24
2018-08-03T03:59:14.459Z,1007.27
2018-08-03T03:59:54.891Z,1007.25
2018-08-03T04:00:35.397Z,1007.25
2018-08-03T04:01:15.849Z,1007.24
2018-08-03T04:01:56.348Z,1007.21
2018-08-03T04:02:36.881Z,1007.25
2018-08-03T04:03:17.323Z,1007.25
2018-08-03T04:03:57.953Z,1007.23
2018-08-03T04:04:38.301Z,1007.27
2018-08-03T04:05:18.789Z,1007.25
2018-08-03T04:07:32.003Z,1007.28
2018-08-03T04:08:12.572Z,1007.29
2018-08-03T04:08:52.998Z,1007.29
2018-08-03T04:09:33.491Z,1007.3
2018-08-03T04:10:13.993Z,1007.3
2018-08-03T04:10:54.534Z,1007.31
2018-08-03T04:11:35.019Z,1007.31
2018-08-03T04:12:15.677Z,1007.31
2018-08-03T04:12:56.146Z,1007.29
2018-08-03T04:13:36.642Z,1007.31
2018-08-03T04:14:17.078Z,1007.34
2018-08-03T04:14:57.600Z,1007.32
2018-08-03T04:15:38.065Z,1007.34
2018-08-03T04:16:18.567Z,1007.35
2018-08-03T04:16:59.057Z,1007.33
2018-08-03T04:17:39.573Z,1007.38
2018-08-03T04:18:20.031Z,1007.36
2018-08-03T04:19:00.699Z,1007.4
2018-08-03T04:19:41.206Z,1007.37
2018-08-03T04:20:21.703Z,1007.35
2018-08-03T04:21:02.191Z,1007.35
2018-08-03T04:21:42.687Z,1007.39
2018-08-03T04:22:23.206Z,1007.38
2018-08-03T04:23:03.627Z,1007.38
2018-08-03T04:23:44.107Z,1007.41
2018-08-03T04:24:24.603Z,1007.41
2018-08-03T04:25:05.084Z,1007.41
2018-08-03T04:25:45.583Z,1007.39
2018-08-03T04:26:26.140Z,1007.42
2018-08-03T04:27:06.647Z,1007.46
2018-08-03T04:27:47.141Z,1007.39
2018-08-03T04:28:27.604Z,1007.46
2018-08-03T04:29:08.119Z,1007.42
2018-08-03T04:29:48.549Z,1007.46
2018-08-03T04:30:29.066Z,1007.42
2018-08-03T04:31:09.573Z,1007.43
2018-08-03T04:31:50.064Z,1007.5
2018-08-03T04:32:30.545Z,1007.44
2018-08-03T04:33:11.125Z,1007.46
2018-08-03T04:33:51.624Z,1007.44
2018-08-03T04:34:32.182Z,1007.42
2018-08-03T04:35:12.722Z,1007.43
2018-08-03T04:35:53.255Z,1007.44
2018-08-03T04:36:33.747Z,1007.46
2018-08-03T04:37:14.272Z,1007.45
2018-08-03T04:37:54.739Z,1007.47
2018-08-03T04:38:35.241Z,1007.44
2018-08-03T04:39:15.786Z,1007.47
2018-08-03T04:39:56.259Z,1007.46
2018-08-03T04:40:36.796Z,1007.47
2018-08-03T04:41:17.315Z,1007.49
2018-08-03T04:41:57.781Z,1007.46
2018-08-03T04:42:38.425Z,1007.51
2018-08-03T04:43:18.812Z,1007.45
2018-08-03T04:43:59.373Z,1007.47
2018-08-03T04:44:39.847Z,1007.46
2018-08-03T04:45:20.344Z,1007.45
2018-08-03T04:46:00.814Z,1007.44
2018-08-03T04:46:41.337Z,1007.48
2018-08-03T04:47:21.829Z,1007.44
2018-08-03T04:48:02.337Z,1007.45
2018-08-03T04:48:42.875Z,1007.47
2018-08-03T04:49:23.495Z,1007.45
2018-08-03T04:50:04.361Z,1007.46
2018-08-03T04:50:44.825Z,1007.5
2018-08-03T04:51:25.327Z,1007.49
2018-08-03T04:52:05.872Z,1007.47
2018-08-03T04:52:46.345Z,1007.5
2018-08-03T04:53:26.819Z,1007.5
2018-08-03T04:54:07.358Z,1007.54
2018-08-03T04:54:47.854Z,1007.55
2018-08-03T04:55:28.425Z,1007.54
2018-08-03T04:56:08.929Z,1007.54
2018-08-03T04:56:49.424Z,1007.54
2018-08-03T04:57:29.977Z,1007.57
2018-08-03T04:58:10.451Z,1007.57
2018-08-03T04:58:50.993Z,1007.57
2018-08-03T04:59:31.402Z,1007.57
2018-08-03T05:00:11.950Z,1007.55
2018-08-03T05:00:52.411Z,1007.59
2018-08-03T05:01:32.926Z,1007.54
2018-08-03T05:02:13.376Z,1007.57
2018-08-03T05:02:53.875Z,1007.59
2018-08-03T05:03:34.332Z,1007.57
2018-08-03T05:04:14.847Z,1007.59
2018-08-03T05:04:55.340Z,1007.58
2018-08-03T05:05:35.830Z,1007.52
2018-08-03T05:06:16.349Z,1007.54
2018-08-03T05:06:56.840Z,1007.55
2018-08-03T05:07:37.372Z,1007.51
2018-08-03T05:08:17.896Z,1007.53
2018-08-03T05:08:58.477Z,1007.57
2018-08-03T05:09:38.953Z,1007.56
2018-08-03T05:10:19.487Z,1007.58
2018-08-03T05:10:59.948Z,1007.56
2018-08-03T05:11:40.452Z,1007.55
2018-08-03T05:12:21.003Z,1007.59
2018-08-03T05:13:01.466Z,1007.57
2018-08-03T05:13:41.931Z,1007.55
2018-08-03T05:14:22.446Z,1007.55
2018-08-03T05:15:02.940Z,1007.57
2018-08-03T05:15:43.440Z,1007.6
2018-08-03T05:16:23.929Z,1007.53
2018-08-03T05:17:04.975Z,1007.56
2018-08-03T05:17:45.518Z,1007.51
2018-08-03T05:18:26.009Z,1007.53
2018-08-03T05:19:06.473Z,1007.53
2018-08-03T05:19:47.100Z,1007.56
2018-08-03T05:20:27.654Z,1007.53
2018-08-03T05:21:08.150Z,1007.55
2018-08-03T05:21:48.852Z,1007.57
2018-08-03T05:22:29.331Z,1007.59
2018-08-03T05:23:09.854Z,1007.6
2018-08-03T05:23:50.391Z,1007.62
2018-08-03T05:24:30.952Z,1007.62
2018-08-03T05:25:11.472Z,1007.6
2018-08-03T05:25:51.881Z,1007.64
2018-08-03T05:26:32.390Z,1007.62
2018-08-03T05:27:12.902Z,1007.59
2018-08-03T05:27:53.513Z,1007.6
2018-08-03T05:28:34.150Z,1007.61
2018-08-03T05:29:14.559Z,1007.63
2018-08-03T05:29:55.078Z,1007.63
2018-08-03T05:30:35.583Z,1007.63
2018-08-03T05:31:16.274Z,1007.64
2018-08-03T05:31:56.759Z,1007.65
2018-08-03T05:32:37.264Z,1007.66
2018-08-03T05:33:17.778Z,1007.63
2018-08-03T05:33:58.277Z,1007.66
2018-08-03T05:34:38.772Z,1007.65
2018-08-03T05:35:19.294Z,1007.64
2018-08-03T05:35:59.921Z,1007.65
2018-08-03T05:36:40.283Z,1007.63
2018-08-03T05:37:20.797Z,1007.62
2018-08-03T05:38:01.266Z,1007.65
2018-08-03T05:38:41.726Z,1007.64
2018-08-03T05:39:22.242Z,1007.64
2018-08-03T05:40:02.713Z,1007.67
2018-08-03T05:40:43.198Z,1007.64
2018-08-03T05:41:23.734Z,1007.66
2018-08-03T05:42:04.289Z,1007.66
2018-08-03T05:42:44.789Z,1007.67
2018-08-03T05:43:25.256Z,1007.65
2018-08-03T05:44:05.731Z,1007.67
2018-08-03T05:44:46.205Z,1007.67
2018-08-03T05:45:26.735Z,1007.62
2018-08-03T05:46:07.187Z,1007.71
2018-08-03T05:46:47.731Z,1007.65
2018-08-03T05:47:28.274Z,1007.7
2018-08-03T05:48:08.825Z,1007.7
2018-08-03T05:48:49.337Z,1007.7
2018-08-03T05:49:32.917Z,1007.69
2018-08-03T05:50:13.491Z,1007.7
2018-08-03T05:50:53.914Z,1007.7
2018-08-03T05:51:34.403Z,1007.71
2018-08-03T05:52:14.924Z,1007.71
2018-08-03T05:52:55.484Z,1007.69
2018-08-03T05:53:35.926Z,1007.7
2018-08-03T05:54:16.609Z,1007.7
2018-08-03T05:54:57.023Z,1007.71
2018-08-03T05:55:37.515Z,1007.7
2018-08-03T05:56:17.981Z,1007.74
2018-08-03T05:56:58.521Z,1007.74
2018-08-03T05:57:38.999Z,1007.73
2018-08-03T05:58:19.474Z,1007.76
2018-08-03T05:58:59.962Z,1007.74
2018-08-03T05:59:40.454Z,1007.76
2018-08-03T06:00:20.967Z,1007.78
2018-08-03T06:01:01.589Z,1007.75
2018-08-03T06:01:42.009Z,1007.75
2018-08-03T06:02:22.630Z,1007.75
2018-08-03T06:03:03.163Z,1007.72
2018-08-03T06:03:43.726Z,1007.71
2018-08-03T06:04:24.481Z,1007.68
2018-08-03T06:05:05.130Z,1007.68
2018-08-03T06:05:45.758Z,1007.71
2018-08-03T06:06:26.220Z,1007.65
2018-08-03T06:07:06.696Z,1007.72
2018-08-03T06:07:47.339Z,1007.65
2018-08-03T06:08:27.736Z,1007.63
2018-08-03T06:09:08.232Z,1007.61
2018-08-03T06:09:48.720Z,1007.64
2018-08-03T06:10:29.537Z,1007.67
2018-08-03T06:11:10.049Z,1007.7
2018-08-03T06:11:50.533Z,1007.7
2018-08-03T06:12:31.066Z,1007.72
2018-08-03T06:13:11.596Z,1007.73
2018-08-03T06:13:52.088Z,1007.72
2018-08-03T06:14:32.652Z,1007.79
2018-08-03T06:15:13.233Z,1007.77
2018-08-03T06:15:53.625Z,1007.79
2018-08-03T06:16:34.105Z,1007.78
2018-08-03T06:17:14.636Z,1007.8
2018-08-03T06:17:55.185Z,1007.81
2018-08-03T06:18:35.646Z,1007.81
2018-08-03T06:19:16.187Z,1007.85
2018-08-03T06:19:56.677Z,1007.82
2018-08-03T06:20:37.280Z,1007.78
2018-08-03T06:21:17.729Z,1007.78
2018-08-03T06:21:58.151Z,1007.78
2018-08-03T06:22:38.726Z,1007.74
2018-08-03T06:23:19.199Z,1007.74
2018-08-03T06:23:59.841Z,1007.75
2018-08-03T06:24:40.344Z,1007.74
2018-08-03T06:25:20.833Z,1007.74
2018-08-03T06:26:01.467Z,1007.76
2018-08-03T06:26:41.906Z,1007.78
2018-08-03T06:27:22.407Z,1007.72
2018-08-03T06:28:02.929Z,1007.75
2018-08-03T06:28:43.446Z,1007.79
2018-08-03T06:29:23.989Z,1007.74
2018-08-03T06:30:04.436Z,1007.73
2018-08-03T06:30:45.077Z,1007.75
2018-08-03T06:31:25.640Z,1007.81
2018-08-03T06:32:06.143Z,1007.74
2018-08-03T06:32:46.600Z,1007.72
2018-08-03T06:33:27.081Z,1007.76
2018-08-03T06:34:07.616Z,1007.75
2018-08-03T06:34:48.131Z,1007.69
2018-08-03T06:35:28.667Z,1007.77
2018-08-03T06:36:09.148Z,1007.77
2018-08-03T06:36:49.649Z,1007.73
2018-08-03T06:37:30.239Z,1007.74
2018-08-03T06:38:10.762Z,1007.7
2018-08-03T06:38:51.239Z,1007.72
2018-08-03T06:39:31.877Z,1007.73
2018-08-03T06:40:12.458Z,1007.75
2018-08-03T06:40:53.099Z,1007.75
2018-08-03T06:41:33.684Z,1007.7
2018-08-03T06:42:14.149Z,1007.7
2018-08-03T06:42:54.704Z,1007.72
2018-08-03T06:43:35.224Z,1007.72
2018-08-03T06:44:15.833Z,1007.7
2018-08-03T06:44:56.310Z,1007.78
2018-08-03T06:45:36.846Z,1007.7
2018-08-03T06:46:17.461Z,1007.73
2018-08-03T06:46:57.927Z,1007.74
2018-08-03T06:47:38.436Z,1007.78
2018-08-03T06:48:18.898Z,1007.74
2018-08-03T06:48:59.392Z,1007.76
2018-08-03T06:49:39.878Z,1007.71
2018-08-03T06:50:20.402Z,1007.72
2018-08-03T06:51:00.914Z,1007.73
2018-08-03T06:51:41.471Z,1007.66
2018-08-03T06:52:21.949Z,1007.72
2018-08-03T06:53:02.373Z,1007.74
2018-08-03T06:53:42.906Z,1007.71
2018-08-03T06:54:23.361Z,1007.71
2018-08-03T06:55:03.865Z,1007.77
2018-08-03T06:55:44.423Z,1007.72
2018-08-03T06:56:24.939Z,1007.72
2018-08-03T06:57:05.492Z,1007.72
2018-08-03T06:57:45.951Z,1007.68
2018-08-03T06:58:26.462Z,1007.77
2018-08-03T06:59:07.012Z,1007.73
2018-08-03T06:59:47.436Z,1007.73
2018-08-03T07:00:27.959Z,1007.74
2018-08-03T07:01:08.433Z,1007.7
2018-08-03T07:01:48.933Z,1007.74
2018-08-03T07:02:29.589Z,1007.7
2018-08-03T07:03:10.148Z,1007.7
2018-08-03T07:03:50.601Z,1007.73
2018-08-03T07:04:31.283Z,1007.7
2018-08-03T07:05:11.617Z,1007.71
2018-08-03T07:05:52.096Z,1007.74
2018-08-03T07:06:32.627Z,1007.74
2018-08-03T07:07:13.137Z,1007.74
2018-08-03T07:07:53.695Z,1007.75
2018-08-03T07:08:34.298Z,1007.76
2018-08-03T07:09:14.825Z,1007.77
2018-08-03T07:09:55.400Z,1007.83
2018-08-03T07:10:35.978Z,1007.74
2018-08-03T07:11:16.488Z,1007.78
2018-08-03T07:11:56.989Z,1007.74
2018-08-03T07:12:37.553Z,1007.74
2018-08-03T07:13:18.051Z,1007.77
2018-08-03T07:13:58.578Z,1007.78
2018-08-03T07:14:39.167Z,1007.81
2018-08-03T07:15:19.570Z,1007.74
2018-08-03T07:16:00.105Z,1007.79
2018-08-03T07:16:40.693Z,1007.72
2018-08-03T07:17:21.111Z,1007.72
2018-08-03T07:18:01.565Z,1007.74
2018-08-03T07:18:42.120Z,1007.74
2018-08-03T07:19:22.573Z,1007.74
2018-08-03T07:20:03.054Z,1007.68
2018-08-03T07:20:43.602Z,1007.69
2018-08-03T07:21:24.080Z,1007.71
2018-08-03T07:22:04.627Z,1007.63
2018-08-03T07:22:45.098Z,1007.65
2018-08-03T07:23:25.653Z,1007.65
2018-08-03T07:24:06.129Z,1007.65
2018-08-03T07:24:46.566Z,1007.65
2018-08-03T07:25:27.128Z,1007.7
2018-08-03T07:26:07.550Z,1007.65
2018-08-03T07:26:48.064Z,1007.64
2018-08-03T07:27:28.715Z,1007.64
2018-08-03T07:28:09.349Z,1007.62
2018-08-03T07:28:49.822Z,1007.58
2018-08-03T07:29:30.339Z,1007.63
2018-08-03T07:30:10.883Z,1007.61
2018-08-03T07:30:51.384Z,1007.59
2018-08-03T07:31:31.799Z,1007.57
2018-08-03T07:32:12.386Z,1007.62
2018-08-03T07:32:52.867Z,1007.62
2018-08-03T07:33:33.414Z,1007.63
2018-08-03T07:34:13.887Z,1007.62
2018-08-03T07:34:54.366Z,1007.62
2018-08-03T07:35:34.859Z,1007.62
2018-08-03T07:36:15.379Z,1007.6
2018-08-03T07:36:55.960Z,1007.63
2018-08-03T07:37:36.500Z,1007.57
2018-08-03T07:38:17.040Z,1007.62
2018-08-03T07:38:57.475Z,1007.65
2018-08-03T07:39:37.966Z,1007.6
2018-08-03T07:40:18.452Z,1007.6
2018-08-03T07:40:58.966Z,1007.69
2018-08-03T07:41:39.479Z,1007.6
2018-08-03T07:42:20.193Z,1007.59
2018-08-03T07:43:00.694Z,1007.64
2018-08-03T07:43:41.116Z,1007.59
2018-08-03T07:44:21.725Z,1007.59
2018-08-03T07:45:02.828Z,1007.61
2018-08-03T07:45:43.177Z,1007.6
2018-08-03T07:46:23.694Z,1007.56
2018-08-03T07:47:04.195Z,1007.54
2018-08-03T07:47:44.781Z,1007.56
2018-08-03T07:48:25.304Z,1007.54
2018-08-03T07:49:05.809Z,1007.54
2018-08-03T07:49:46.416Z,1007.5
2018-08-03T07:50:26.893Z,1007.49
2018-08-03T07:51:07.389Z,1007.53
2018-08-03T07:51:47.844Z,1007.56
2018-08-03T07:52:28.449Z,1007.54
2018-08-03T07:53:08.894Z,1007.55
2018-08-03T07:53:49.459Z,1007.55
2018-08-03T07:54:29.932Z,1007.52
2018-08-03T07:55:10.587Z,1007.55
2018-08-03T07:55:50.943Z,1007.58
2018-08-03T07:56:31.484Z,1007.59
2018-08-03T07:57:12.282Z,1007.56
2018-08-03T07:57:52.750Z,1007.56
2018-08-03T07:58:33.255Z,1007.53
2018-08-03T07:59:13.743Z,1007.55
2018-08-03T07:59:54.334Z,1007.54
2018-08-03T08:00:34.902Z,1007.57
2018-08-03T08:01:15.570Z,1007.6
2018-08-03T08:01:56.170Z,1007.61
2018-08-03T08:02:36.791Z,1007.59
2018-08-03T08:03:17.414Z,1007.55
2018-08-03T08:03:57.769Z,1007.55
2018-08-03T08:04:38.272Z,1007.6
2018-08-03T08:05:18.754Z,1007.55
2018-08-03T08:05:59.266Z,1007.52
2018-08-03T08:06:39.841Z,1007.56
2018-08-03T08:07:20.305Z,1007.5
2018-08-03T08:08:00.865Z,1007.49
2018-08-03T08:08:41.346Z,1007.47
2018-08-03T08:09:21.858Z,1007.46
2018-08-03T08:10:02.385Z,1007.57
2018-08-03T08:10:42.890Z,1007.53
2018-08-03T08:11:23.345Z,1007.53
2018-08-03T08:12:03.880Z,1007.52
2018-08-03T08:12:44.429Z,1007.51
2018-08-03T08:13:24.995Z,1007.5
2018-08-03T08:14:05.592Z,1007.49
2018-08-03T08:14:46.056Z,1007.54
2018-08-03T08:15:26.549Z,1007.49
2018-08-03T08:16:07.057Z,1007.49
2018-08-03T08:16:47.638Z,1007.51